sensor_id;sensor_type;location;lat;lon;timestamp;pressure;altitude;pressure_sealevel;temperature;humidity
75886;BME280;64561;44.018;10.144;2023-09-07T00:02:13;101753.28;;;20.16;64.20
75886;BME280;64561;44.018;10.144;2023-09-07T00:04:40;101748.94;;;20.10;63.95
75886;BME280;64561;44.018;10.144;2023-09-07T00:07:08;101748.94;;;20.02;62.96
75886;BME280;64561;44.018;10.144;2023-09-07T00:09:35;101741.13;;;19.99;61.68
75886;BME280;64561;44.018;10.144;2023-09-07T00:12:03;101742.00;;;19.92;63.54
75886;BME280;64561;44.018;10.144;2023-09-07T00:14:30;101742.84;;;19.70;63.07
75886;BME280;64561;44.018;10.144;2023-09-07T00:16:57;101742.00;;;19.78;64.27
75886;BME280;64561;44.018;10.144;2023-09-07T00:19:25;101745.47;;;19.88;64.95
75886;BME280;64561;44.018;10.144;2023-09-07T00:21:52;101740.25;;;19.88;63.84
75886;BME280;64561;44.018;10.144;2023-09-07T00:24:19;101732.50;;;19.90;62.63
75886;BME280;64561;44.018;10.144;2023-09-07T00:26:46;101735.06;;;19.94;62.24
75886;BME280;64561;44.018;10.144;2023-09-07T00:29:13;101735.06;;;20.03;63.57
75886;BME280;64561;44.018;10.144;2023-09-07T00:31:40;101731.63;;;19.98;63.08
75886;BME280;64561;44.018;10.144;2023-09-07T00:34:08;101729.00;;;20.03;63.39
75886;BME280;64561;44.018;10.144;2023-09-07T00:36:36;101726.41;;;20.07;64.08
75886;BME280;64561;44.018;10.144;2023-09-07T00:39:04;101724.66;;;20.03;62.82
75886;BME280;64561;44.018;10.144;2023-09-07T00:41:32;101722.09;;;19.99;63.01
75886;BME280;64561;44.018;10.144;2023-09-07T00:43:59;101727.28;;;19.86;62.68
75886;BME280;64561;44.018;10.144;2023-09-07T00:46:26;101725.53;;;19.82;62.75
75886;BME280;64561;44.018;10.144;2023-09-07T00:48:56;101729.00;;;19.75;61.04
75886;BME280;64561;44.018;10.144;2023-09-07T00:51:24;101723.84;;;19.86;62.21
75886;BME280;64561;44.018;10.144;2023-09-07T00:53:52;101726.44;;;19.95;63.80
75886;BME280;64561;44.018;10.144;2023-09-07T00:56:20;101725.53;;;19.99;64.17
75886;BME280;64561;44.018;10.144;2023-09-07T00:58:48;101720.34;;;19.85;62.88
75886;BME280;64561;44.018;10.144;2023-09-07T01:01:15;101720.34;;;19.73;62.51
75886;BME280;64561;44.018;10.144;2023-09-07T01:03:42;101721.22;;;19.71;62.93
75886;BME280;64561;44.018;10.144;2023-09-07T01:06:18;101727.28;;;19.76;63.38
75886;BME280;64561;44.018;10.144;2023-09-07T01:08:49;101726.41;;;19.78;63.08
75886;BME280;64561;44.018;10.144;2023-09-07T01:11:19;101723.81;;;19.78;64.11
75886;BME280;64561;44.018;10.144;2023-09-07T01:13:53;101725.50;;;19.64;60.44
75886;BME280;64561;44.018;10.144;2023-09-07T01:16:21;101725.50;;;19.56;59.44
75886;BME280;64561;44.018;10.144;2023-09-07T01:18:52;101722.06;;;19.73;61.60
75886;BME280;64561;44.018;10.144;2023-09-07T01:21:24;101721.22;;;19.80;62.57
75886;BME280;64561;44.018;10.144;2023-09-07T01:23:52;101730.75;;;19.96;61.27
75886;BME280;64561;44.018;10.144;2023-09-07T01:26:19;101724.69;;;19.93;61.31
75886;BME280;64561;44.018;10.144;2023-09-07T01:28:47;101726.44;;;19.83;62.26
75886;BME280;64561;44.018;10.144;2023-09-07T01:31:14;101725.56;;;19.72;62.99
75886;BME280;64561;44.018;10.144;2023-09-07T01:33:42;101723.84;;;19.74;62.80
75886;BME280;64561;44.018;10.144;2023-09-07T01:36:10;101722.97;;;19.75;62.61
75886;BME280;64561;44.018;10.144;2023-09-07T01:38:37;101727.28;;;19.79;63.22
75886;BME280;64561;44.018;10.144;2023-09-07T01:41:04;101727.28;;;19.76;62.63
75886;BME280;64561;44.018;10.144;2023-09-07T01:43:31;101725.44;;;19.24;64.14
75886;BME280;64561;44.018;10.144;2023-09-07T01:45:58;101724.56;;;19.21;64.59
75886;BME280;64561;44.018;10.144;2023-09-07T01:48:26;101726.31;;;19.31;64.76
75886;BME280;64561;44.018;10.144;2023-09-07T01:50:53;101724.59;;;19.30;65.52
75886;BME280;64561;44.018;10.144;2023-09-07T01:53:21;101719.41;;;19.27;64.38
75886;BME280;64561;44.018;10.144;2023-09-07T01:55:49;101719.38;;;19.21;64.86
75886;BME280;64561;44.018;10.144;2023-09-07T01:58:17;101718.50;;;19.22;64.71
75886;BME280;64561;44.018;10.144;2023-09-07T02:00:44;101719.34;;;19.10;64.05
75886;BME280;64561;44.018;10.144;2023-09-07T02:03:12;101714.09;;;18.93;63.99
75886;BME280;64561;44.018;10.144;2023-09-07T02:05:39;101715.84;;;18.95;64.56
75886;BME280;64561;44.018;10.144;2023-09-07T02:08:06;101712.41;;;19.03;65.24
75886;BME280;64561;44.018;10.144;2023-09-07T02:10:33;101723.69;;;19.14;66.77
75886;BME280;64561;44.018;10.144;2023-09-07T02:13:01;101708.13;;;19.15;66.63
75886;BME280;64561;44.018;10.144;2023-09-07T02:15:30;101721.94;;;19.05;64.79
75886;BME280;64561;44.018;10.144;2023-09-07T02:18:00;101713.28;;;19.08;64.91
75886;BME280;64561;44.018;10.144;2023-09-07T02:20:34;101715.06;;;19.16;66.11
75886;BME280;64561;44.018;10.144;2023-09-07T02:23:01;101711.56;;;19.22;65.99
75886;BME280;64561;44.018;10.144;2023-09-07T02:25:29;101711.56;;;19.10;65.10
75886;BME280;64561;44.018;10.144;2023-09-07T02:27:57;101719.34;;;19.05;62.91
75886;BME280;64561;44.018;10.144;2023-09-07T02:30:25;101719.28;;;18.93;62.96
75886;BME280;64561;44.018;10.144;2023-09-07T02:32:52;101713.25;;;18.95;63.17
75886;BME280;64561;44.018;10.144;2023-09-07T02:35:20;101719.34;;;19.05;63.91
75886;BME280;64561;44.018;10.144;2023-09-07T02:37:47;101711.53;;;19.01;63.82
75886;BME280;64561;44.018;10.144;2023-09-07T02:40:14;101720.16;;;18.90;63.53
75886;BME280;64561;44.018;10.144;2023-09-07T02:42:42;101711.50;;;18.98;64.36
75886;BME280;64561;44.018;10.144;2023-09-07T02:45:11;101706.38;;;19.05;64.52
75886;BME280;64561;44.018;10.144;2023-09-07T02:47:39;101708.03;;;18.94;62.19
75886;BME280;64561;44.018;10.144;2023-09-07T02:50:07;101699.44;;;19.00;62.92
75886;BME280;64561;44.018;10.144;2023-09-07T02:52:34;101700.28;;;19.03;62.82
75886;BME280;64561;44.018;10.144;2023-09-07T02:55:02;101697.72;;;19.11;64.34
75886;BME280;64561;44.018;10.144;2023-09-07T02:57:31;101701.19;;;19.11;63.64
75886;BME280;64561;44.018;10.144;2023-09-07T03:00:01;101701.19;;;19.13;63.11
75886;BME280;64561;44.018;10.144;2023-09-07T03:02:36;101699.47;;;19.16;63.59
75886;BME280;64561;44.018;10.144;2023-09-07T03:05:04;101701.16;;;19.07;64.37
75886;BME280;64561;44.018;10.144;2023-09-07T03:07:33;101701.13;;;18.93;63.57
75886;BME280;64561;44.018;10.144;2023-09-07T03:10:00;101701.97;;;18.84;63.17
75886;BME280;64561;44.018;10.144;2023-09-07T03:12:30;101699.31;;;18.73;62.84
75886;BME280;64561;44.018;10.144;2023-09-07T03:14:57;101701.06;;;18.76;63.71
75886;BME280;64561;44.018;10.144;2023-09-07T03:17:24;101703.69;;;18.85;64.80
75886;BME280;64561;44.018;10.144;2023-09-07T03:19:51;101703.69;;;18.81;62.68
75886;BME280;64561;44.018;10.144;2023-09-07T03:22:19;101699.34;;;18.78;62.62
75886;BME280;64561;44.018;10.144;2023-09-07T03:24:50;101696.78;;;18.86;63.31
75886;BME280;64561;44.018;10.144;2023-09-07T03:27:17;101697.59;;;18.80;62.90
75886;BME280;64561;44.018;10.144;2023-09-07T03:29:44;101695.00;;;18.76;61.60
75886;BME280;64561;44.018;10.144;2023-09-07T03:32:12;101693.28;;;18.76;61.66
75886;BME280;64561;44.018;10.144;2023-09-07T03:34:39;101699.38;;;18.81;61.28
75886;BME280;64561;44.018;10.144;2023-09-07T03:37:07;101691.63;;;18.95;63.31
75886;BME280;64561;44.018;10.144;2023-09-07T03:39:38;101695.03;;;18.85;62.94
75886;BME280;64561;44.018;10.144;2023-09-07T03:42:05;101696.78;;;18.84;61.68
75886;BME280;64561;44.018;10.144;2023-09-07T03:44:33;101697.66;;;18.88;62.79
75886;BME280;64561;44.018;10.144;2023-09-07T03:47:00;101702.00;;;18.93;63.56
75886;BME280;64561;44.018;10.144;2023-09-07T03:49:27;101689.00;;;18.92;63.79
75886;BME280;64561;44.018;10.144;2023-09-07T03:51:55;101701.13;;;18.90;62.91
75886;BME280;64561;44.018;10.144;2023-09-07T03:54:23;101698.53;;;18.90;62.53
75886;BME280;64561;44.018;10.144;2023-09-07T03:56:50;101696.78;;;18.92;62.97
75886;BME280;64561;44.018;10.144;2023-09-07T03:59:17;101698.53;;;18.90;63.60
75886;BME280;64561;44.018;10.144;2023-09-07T04:01:45;101693.28;;;18.73;63.33
75886;BME280;64561;44.018;10.144;2023-09-07T04:04:12;101687.13;;;18.65;63.19
75886;BME280;64561;44.018;10.144;2023-09-07T04:06:39;101691.41;;;18.52;62.37
75886;BME280;64561;44.018;10.144;2023-09-07T04:09:06;101691.44;;;18.57;63.04
75886;BME280;64561;44.018;10.144;2023-09-07T04:11:34;101692.34;;;18.68;63.64
75886;BME280;64561;44.018;10.144;2023-09-07T04:14:01;101686.31;;;18.72;62.30
75886;BME280;64561;44.018;10.144;2023-09-07T04:16:28;101682.06;;;18.79;62.10
75886;BME280;64561;44.018;10.144;2023-09-07T04:18:55;101685.53;;;18.81;62.15
75886;BME280;64561;44.018;10.144;2023-09-07T04:21:23;101683.78;;;18.83;61.95
75886;BME280;64561;44.018;10.144;2023-09-07T04:23:50;101688.16;;;18.87;62.16
75886;BME280;64561;44.018;10.144;2023-09-07T04:26:17;101683.81;;;18.81;62.05
75886;BME280;64561;44.018;10.144;2023-09-07T04:28:44;101683.78;;;18.83;61.05
75886;BME280;64561;44.018;10.144;2023-09-07T04:31:12;101678.63;;;18.92;61.28
75886;BME280;64561;44.018;10.144;2023-09-07T04:33:39;101684.72;;;19.00;63.04
75886;BME280;64561;44.018;10.144;2023-09-07T04:36:10;101691.66;;;19.10;63.56
75886;BME280;64561;44.018;10.144;2023-09-07T04:38:39;101690.78;;;19.07;63.07
75886;BME280;64561;44.018;10.144;2023-09-07T04:41:13;101692.53;;;19.08;64.50
75886;BME280;64561;44.018;10.144;2023-09-07T04:43:41;101685.59;;;19.07;64.40
75886;BME280;64561;44.018;10.144;2023-09-07T04:46:13;101687.25;;;18.85;64.07
75886;BME280;64561;44.018;10.144;2023-09-07T04:48:41;101683.69;;;18.64;64.37
75886;BME280;64561;44.018;10.144;2023-09-07T04:51:10;101692.34;;;18.66;63.99
75886;BME280;64561;44.018;10.144;2023-09-07T04:53:39;101699.19;;;18.47;64.13
75886;BME280;64561;44.018;10.144;2023-09-07T04:56:08;101708.63;;;18.44;63.85
75886;BME280;64561;44.018;10.144;2023-09-07T04:58:36;101699.16;;;18.46;65.68
75886;BME280;64561;44.018;10.144;2023-09-07T05:01:05;101703.50;;;18.56;65.80
75886;BME280;64561;44.018;10.144;2023-09-07T05:03:32;101712.13;;;18.46;65.18
75886;BME280;64561;44.018;10.144;2023-09-07T05:06:01;101714.72;;;18.49;64.50
75886;BME280;64561;44.018;10.144;2023-09-07T05:08:30;101708.69;;;18.48;64.35
75886;BME280;64561;44.018;10.144;2023-09-07T05:11:00;101705.28;;;18.57;65.52
75886;BME280;64561;44.018;10.144;2023-09-07T05:13:28;101697.53;;;18.63;66.24
75886;BME280;64561;44.018;10.144;2023-09-07T05:15:58;101695.81;;;18.70;65.99
75886;BME280;64561;44.018;10.144;2023-09-07T05:18:26;101697.53;;;18.71;64.98
75886;BME280;64561;44.018;10.144;2023-09-07T05:20:54;101703.59;;;18.67;62.84
75886;BME280;64561;44.018;10.144;2023-09-07T05:23:22;101704.38;;;18.52;65.16
75886;BME280;64561;44.018;10.144;2023-09-07T05:25:51;101703.50;;;18.53;65.02
75886;BME280;64561;44.018;10.144;2023-09-07T05:28:24;101703.56;;;18.59;65.22
75886;BME280;64561;44.018;10.144;2023-09-07T05:30:54;101703.50;;;18.56;65.42
75886;BME280;64561;44.018;10.144;2023-09-07T05:33:23;101712.19;;;18.61;65.83
75886;BME280;64561;44.018;10.144;2023-09-07T05:35:50;101715.69;;;18.69;66.87
75886;BME280;64561;44.018;10.144;2023-09-07T05:38:17;101719.22;;;18.78;67.41
75886;BME280;64561;44.018;10.144;2023-09-07T05:40:44;101718.38;;;18.83;67.46
75886;BME280;64561;44.018;10.144;2023-09-07T05:43:12;101714.91;;;18.83;68.10
75886;BME280;64561;44.018;10.144;2023-09-07T05:45:40;101719.25;;;18.81;68.65
75886;BME280;64561;44.018;10.144;2023-09-07T05:48:10;101717.50;;;18.80;68.75
75886;BME280;64561;44.018;10.144;2023-09-07T05:50:38;101723.56;;;18.83;68.98
75886;BME280;64561;44.018;10.144;2023-09-07T05:53:06;101723.53;;;18.80;68.70
75886;BME280;64561;44.018;10.144;2023-09-07T05:55:34;101724.38;;;18.73;68.27
75886;BME280;64561;44.018;10.144;2023-09-07T05:58:05;101732.16;;;18.73;68.11
75886;BME280;64561;44.018;10.144;2023-09-07T06:00:35;101724.38;;;18.73;67.47
75886;BME280;64561;44.018;10.144;2023-09-07T06:03:04;101729.59;;;18.75;68.25
75886;BME280;64561;44.018;10.144;2023-09-07T06:05:33;101723.53;;;18.80;68.80
75886;BME280;64561;44.018;10.144;2023-09-07T06:08:01;101728.78;;;18.86;68.77
75886;BME280;64561;44.018;10.144;2023-09-07T06:10:29;101725.31;;;18.92;69.04
75886;BME280;64561;44.018;10.144;2023-09-07T06:12:58;101727.09;;;19.01;69.93
75886;BME280;64561;44.018;10.144;2023-09-07T06:15:29;101728.84;;;19.09;70.31
75886;BME280;64561;44.018;10.144;2023-09-07T06:17:56;101721.94;;;19.13;70.50
75886;BME280;64561;44.018;10.144;2023-09-07T06:20:24;101728.03;;;19.19;69.92
75886;BME280;64561;44.018;10.144;2023-09-07T06:22:52;101721.13;;;19.28;70.25
75886;BME280;64561;44.018;10.144;2023-09-07T06:25:19;101722.88;;;19.35;70.07
75886;BME280;64561;44.018;10.144;2023-09-07T06:27:47;101727.22;;;19.44;68.68
75886;BME280;64561;44.018;10.144;2023-09-07T06:30:14;101733.28;;;19.53;67.82
75886;BME280;64561;44.018;10.144;2023-09-07T06:32:42;101722.91;;;19.58;66.87
75886;BME280;64561;44.018;10.144;2023-09-07T06:35:11;101727.28;;;19.71;67.18
75886;BME280;64561;44.018;10.144;2023-09-07T06:37:38;101717.75;;;19.85;68.05
75886;BME280;64561;44.018;10.144;2023-09-07T06:40:11;101727.28;;;20.02;67.92
75886;BME280;64561;44.018;10.144;2023-09-07T06:42:38;101724.66;;;20.09;67.69
75886;BME280;64561;44.018;10.144;2023-09-07T06:45:12;101722.06;;;20.22;66.98
75886;BME280;64561;44.018;10.144;2023-09-07T06:47:39;101719.47;;;20.28;66.60
75886;BME280;64561;44.018;10.144;2023-09-07T06:50:08;101728.09;;;20.36;66.26
75886;BME280;64561;44.018;10.144;2023-09-07T06:52:35;101729.84;;;20.43;66.54
75886;BME280;64561;44.018;10.144;2023-09-07T06:55:03;101734.16;;;20.46;64.78
75886;BME280;64561;44.018;10.144;2023-09-07T06:57:31;101741.97;;;20.53;64.73
75886;BME280;64561;44.018;10.144;2023-09-07T07:00:02;101732.41;;;20.65;64.14
75886;BME280;64561;44.018;10.144;2023-09-07T07:02:32;101736.66;;;20.81;63.32
75886;BME280;64561;44.018;10.144;2023-09-07T07:05:01;101731.44;;;20.92;63.69
75886;BME280;64561;44.018;10.144;2023-09-07T07:07:29;101727.06;;;21.00;63.37
75886;BME280;64561;44.018;10.144;2023-09-07T07:09:57;101730.53;;;21.00;60.78
75886;BME280;64561;44.018;10.144;2023-09-07T07:12:24;101734.81;;;21.11;60.56
75886;BME280;64561;44.018;10.144;2023-09-07T07:14:53;101734.78;;;21.17;59.77
75886;BME280;64561;44.018;10.144;2023-09-07T07:17:20;101742.53;;;21.23;60.67
75886;BME280;64561;44.018;10.144;2023-09-07T07:19:49;101741.66;;;21.29;61.25
75886;BME280;64561;44.018;10.144;2023-09-07T07:22:16;101746.84;;;21.36;61.55
75886;BME280;64561;44.018;10.144;2023-09-07T07:24:48;101752.00;;;21.49;60.73
75886;BME280;64561;44.018;10.144;2023-09-07T07:27:15;101753.63;;;21.62;60.18
75886;BME280;64561;44.018;10.144;2023-09-07T07:29:43;101761.38;;;21.73;59.52
75886;BME280;64561;44.018;10.144;2023-09-07T07:32:11;101763.88;;;21.85;58.94
75886;BME280;64561;44.018;10.144;2023-09-07T07:34:39;101760.28;;;22.00;58.98
75886;BME280;64561;44.018;10.144;2023-09-07T07:37:06;101761.03;;;22.12;59.92
75886;BME280;64561;44.018;10.144;2023-09-07T07:39:33;101752.34;;;22.18;60.33
75886;BME280;64561;44.018;10.144;2023-09-07T07:42:00;101749.66;;;22.24;59.85
75886;BME280;64561;44.018;10.144;2023-09-07T07:44:30;101746.13;;;22.31;60.51
75886;BME280;64561;44.018;10.144;2023-09-07T07:46:57;101749.47;;;22.43;61.78
75886;BME280;64561;44.018;10.144;2023-09-07T07:49:24;101748.50;;;22.54;61.31
75886;BME280;64561;44.018;10.144;2023-09-07T07:51:51;101748.31;;;22.70;62.39
75886;BME280;64561;44.018;10.144;2023-09-07T07:54:22;101751.72;;;22.78;64.07
75886;BME280;64561;44.018;10.144;2023-09-07T07:56:52;101751.59;;;22.86;64.84
75886;BME280;64561;44.018;10.144;2023-09-07T07:59:20;101749.75;;;22.94;62.23
75886;BME280;64561;44.018;10.144;2023-09-07T08:01:47;101751.44;;;23.01;62.64
75886;BME280;64561;44.018;10.144;2023-09-07T08:04:15;101747.94;;;23.03;62.63
75886;BME280;64561;44.018;10.144;2023-09-07T08:06:42;101746.09;;;23.12;61.41
75886;BME280;64561;44.018;10.144;2023-09-07T08:09:09;101737.31;;;23.17;61.35
75886;BME280;64561;44.018;10.144;2023-09-07T08:11:37;101749.41;;;23.23;62.79
75886;BME280;64561;44.018;10.144;2023-09-07T08:14:06;101751.94;;;23.29;63.44
75886;BME280;64561;44.018;10.144;2023-09-07T08:16:34;101748.44;;;23.30;62.42
75886;BME280;64561;44.018;10.144;2023-09-07T08:19:01;101745.78;;;23.35;64.37
75886;BME280;64561;44.018;10.144;2023-09-07T08:21:28;101756.03;;;23.47;64.36
75886;BME280;64561;44.018;10.144;2023-09-07T08:23:56;101757.72;;;23.49;64.52
75886;BME280;64561;44.018;10.144;2023-09-07T08:26:23;101754.16;;;23.55;66.41
75886;BME280;64561;44.018;10.144;2023-09-07T08:28:50;101759.28;;;23.61;66.08
75886;BME280;64561;44.018;10.144;2023-09-07T08:31:18;101757.47;;;23.68;65.76
75886;BME280;64561;44.018;10.144;2023-09-07T08:33:49;101754.75;;;23.77;64.85
75886;BME280;64561;44.018;10.144;2023-09-07T08:36:22;101764.25;;;23.81;65.20
75886;BME280;64561;44.018;10.144;2023-09-07T08:38:51;101759.81;;;23.86;64.50
75886;BME280;64561;44.018;10.144;2023-09-07T08:41:21;101761.63;;;23.83;63.48
75886;BME280;64561;44.018;10.144;2023-09-07T08:43:51;101753.59;;;23.93;64.98
75886;BME280;64561;44.018;10.144;2023-09-07T08:46:20;101758.03;;;23.88;63.49
75886;BME280;64561;44.018;10.144;2023-09-07T08:48:50;101758.81;;;23.93;65.61
75886;BME280;64561;44.018;10.144;2023-09-07T08:51:19;101760.41;;;24.02;63.91
75886;BME280;64561;44.018;10.144;2023-09-07T08:53:46;101758.72;;;24.00;63.40
75886;BME280;64561;44.018;10.144;2023-09-07T08:56:16;101756.84;;;24.08;64.29
75886;BME280;64561;44.018;10.144;2023-09-07T08:58:44;101758.41;;;24.18;64.32
75886;BME280;64561;44.018;10.144;2023-09-07T09:01:12;101760.84;;;24.29;63.09
75886;BME280;64561;44.018;10.144;2023-09-07T09:03:42;101759.81;;;24.37;63.00
75886;BME280;64561;44.018;10.144;2023-09-07T09:06:11;101759.72;;;24.42;61.74
75886;BME280;64561;44.018;10.144;2023-09-07T09:11:17;101756.00;;;24.55;61.78
75886;BME280;64561;44.018;10.144;2023-09-07T09:13:45;101755.91;;;24.60;62.60
75886;BME280;64561;44.018;10.144;2023-09-07T09:16:12;101756.81;;;24.57;60.04
75886;BME280;64561;44.018;10.144;2023-09-07T09:18:54;101757.53;;;24.67;62.33
75886;BME280;64561;44.018;10.144;2023-09-07T09:21:24;101752.06;;;24.78;61.83
75886;BME280;64561;44.018;10.144;2023-09-07T09:23:56;101754.50;;;24.87;62.38
75886;BME280;64561;44.018;10.144;2023-09-07T09:26:23;101751.88;;;24.87;61.16
75886;BME280;64561;44.018;10.144;2023-09-07T09:28:55;101743.13;;;24.88;63.48
75886;BME280;64561;44.018;10.144;2023-09-07T09:31:24;101744.81;;;24.91;62.76
75886;BME280;64561;44.018;10.144;2023-09-07T09:33:52;101743.94;;;24.92;62.00
75886;BME280;64561;44.018;10.144;2023-09-07T09:36:20;101741.25;;;24.95;62.53
75886;BME280;64561;44.018;10.144;2023-09-07T09:38:49;101735.16;;;24.94;61.96
75886;BME280;64561;44.018;10.144;2023-09-07T09:41:19;101731.63;;;24.95;60.00
75886;BME280;64561;44.018;10.144;2023-09-07T09:43:48;101734.25;;;24.94;55.91
75886;BME280;64561;44.018;10.144;2023-09-07T09:46:17;101725.69;;;24.87;57.51
75886;BME280;64561;44.018;10.144;2023-09-07T09:48:44;101727.28;;;24.94;54.85
75886;BME280;64561;44.018;10.144;2023-09-07T09:51:14;101725.25;;;25.07;52.85
75886;BME280;64561;44.018;10.144;2023-09-07T09:53:44;101726.13;;;25.07;53.89
75886;BME280;64561;44.018;10.144;2023-09-07T09:56:12;101719.91;;;25.13;55.31
75886;BME280;64561;44.018;10.144;2023-09-07T09:58:39;101723.03;;;25.30;55.59
75886;BME280;64561;44.018;10.144;2023-09-07T10:01:07;101733.88;;;25.51;56.73
75886;BME280;64561;44.018;10.144;2023-09-07T10:03:40;101725.00;;;25.57;55.56
75886;BME280;64561;44.018;10.144;2023-09-07T10:06:32;101722.06;;;25.70;55.01
75886;BME280;64561;44.018;10.144;2023-09-07T10:09:05;101718.44;;;25.76;53.12
75886;BME280;64561;44.018;10.144;2023-09-07T10:11:36;101719.03;;;25.87;49.39
75886;BME280;64561;44.018;10.144;2023-09-07T10:14:07;101710.03;;;25.97;50.13
75886;BME280;64561;44.018;10.144;2023-09-07T10:16:42;101714.28;;;26.02;48.56
75886;BME280;64561;44.018;10.144;2023-09-07T10:19:17;101715.00;;;26.08;48.96
75886;BME280;64561;44.018;10.144;2023-09-07T10:21:45;101716.66;;;26.12;48.24
75886;BME280;64561;44.018;10.144;2023-09-07T10:24:28;101709.78;;;26.07;47.93
75886;BME280;64561;44.018;10.144;2023-09-07T10:26:59;101705.63;;;25.99;47.57
75886;BME280;64561;44.018;10.144;2023-09-07T10:29:27;101700.06;;;26.10;47.87
75886;BME280;64561;44.018;10.144;2023-09-07T10:31:55;101709.53;;;26.17;48.15
75886;BME280;64561;44.018;10.144;2023-09-07T10:34:34;101699.72;;;26.24;50.28
75886;BME280;64561;44.018;10.144;2023-09-07T10:37:03;101704.97;;;26.24;50.57
75886;BME280;64561;44.018;10.144;2023-09-07T10:39:31;101705.00;;;26.22;50.36
75886;BME280;64561;44.018;10.144;2023-09-07T10:41:59;101693.47;;;26.28;49.18
75886;BME280;64561;44.018;10.144;2023-09-07T10:44:27;101684.41;;;26.38;48.78
75886;BME280;64561;44.018;10.144;2023-09-07T10:46:56;101686.75;;;26.51;48.62
75886;BME280;64561;44.018;10.144;2023-09-07T10:49:24;101678.56;;;26.61;47.13
75886;BME280;64561;44.018;10.144;2023-09-07T10:51:51;101683.59;;;26.69;48.52
75886;BME280;64561;44.018;10.144;2023-09-07T10:54:23;101674.50;;;26.79;45.74
75886;BME280;64561;44.018;10.144;2023-09-07T10:56:50;101668.22;;;26.85;46.51
75886;BME280;64561;44.018;10.144;2023-09-07T10:59:17;101673.28;;;26.91;45.86
75886;BME280;64561;44.018;10.144;2023-09-07T11:01:45;101672.16;;;27.00;47.63
75886;BME280;64561;44.018;10.144;2023-09-07T11:04:13;101670.50;;;26.96;48.26
75886;BME280;64561;44.018;10.144;2023-09-07T11:06:41;101665.25;;;26.96;49.88
75886;BME280;64561;44.018;10.144;2023-09-07T11:09:09;101661.63;;;27.00;48.19
75886;BME280;64561;44.018;10.144;2023-09-07T11:11:46;101666.72;;;27.04;47.94
75886;BME280;64561;44.018;10.144;2023-09-07T11:14:14;101663.03;;;27.11;46.34
75886;BME280;64561;44.018;10.144;2023-09-07T11:16:41;101662.03;;;27.16;46.58
75886;BME280;64561;44.018;10.144;2023-09-07T11:19:10;101660.25;;;27.16;47.59
75886;BME280;64561;44.018;10.144;2023-09-07T11:21:37;101648.97;;;27.12;48.90
75886;BME280;64561;44.018;10.144;2023-09-07T11:24:05;101657.78;;;27.10;49.57
75886;BME280;64561;44.018;10.144;2023-09-07T11:26:45;101648.84;;;27.17;48.23
75886;BME280;64561;44.018;10.144;2023-09-07T11:29:17;101639.81;;;27.26;46.58
75886;BME280;64561;44.018;10.144;2023-09-07T11:31:46;101647.41;;;27.35;47.53
75886;BME280;64561;44.018;10.144;2023-09-07T11:34:15;101633.22;;;27.39;45.37
75886;BME280;64561;44.018;10.144;2023-09-07T11:36:44;101632.50;;;27.34;47.31
75886;BME280;64561;44.018;10.144;2023-09-07T11:39:11;101624.50;;;27.39;47.42
75886;BME280;64561;44.018;10.144;2023-09-07T11:41:44;101633.13;;;27.42;43.87
75886;BME280;64561;44.018;10.144;2023-09-07T11:44:12;101628.72;;;27.43;46.11
75886;BME280;64561;44.018;10.144;2023-09-07T11:46:39;101625.38;;;27.38;45.32
75886;BME280;64561;44.018;10.144;2023-09-07T11:49:07;101629.34;;;27.51;47.26
75886;BME280;64561;44.018;10.144;2023-09-07T11:51:37;101624.31;;;27.43;46.19
75886;BME280;64561;44.018;10.144;2023-09-07T11:54:05;101626.75;;;27.49;44.19
75886;BME280;64561;44.018;10.144;2023-09-07T11:56:34;101639.34;;;27.65;44.49
75886;BME280;64561;44.018;10.144;2023-09-07T11:59:06;101639.75;;;27.54;44.73
75886;BME280;64561;44.018;10.144;2023-09-07T12:01:33;101637.88;;;27.57;44.95
75886;BME280;64561;44.018;10.144;2023-09-07T12:04:01;101637.97;;;27.54;42.77
75886;BME280;64561;44.018;10.144;2023-09-07T12:06:28;101641.66;;;27.49;44.30
75886;BME280;64561;44.018;10.144;2023-09-07T12:09:03;101645.16;;;27.49;44.07
75886;BME280;64561;44.018;10.144;2023-09-07T12:11:31;101639.13;;;27.46;43.74
75886;BME280;64561;44.018;10.144;2023-09-07T12:13:58;101633.66;;;27.52;40.97
75886;BME280;64561;44.018;10.144;2023-09-07T12:16:26;101642.91;;;27.64;41.49
75886;BME280;64561;44.018;10.144;2023-09-07T12:18:54;101634.50;;;27.54;42.62
75886;BME280;64561;44.018;10.144;2023-09-07T12:21:22;101631.69;;;27.58;41.48
75886;BME280;64561;44.018;10.144;2023-09-07T12:23:50;101640.25;;;27.65;42.23
75886;BME280;64561;44.018;10.144;2023-09-07T12:26:18;101643.97;;;27.58;42.12
75886;BME280;64561;44.018;10.144;2023-09-07T12:28:48;101638.81;;;27.55;44.87
75886;BME280;64561;44.018;10.144;2023-09-07T12:31:15;101636.38;;;27.50;44.44
75886;BME280;64561;44.018;10.144;2023-09-07T12:33:44;101632.34;;;27.65;47.52
75886;BME280;64561;44.018;10.144;2023-09-07T12:36:11;101628.09;;;27.61;47.94
75886;BME280;64561;44.018;10.144;2023-09-07T12:38:39;101632.81;;;27.51;48.42
75886;BME280;64561;44.018;10.144;2023-09-07T12:41:06;101628.31;;;27.55;47.54
75886;BME280;64561;44.018;10.144;2023-09-07T12:43:33;101627.53;;;27.53;50.26
75886;BME280;64561;44.018;10.144;2023-09-07T12:46:01;101629.84;;;27.62;50.53
75886;BME280;64561;44.018;10.144;2023-09-07T12:48:29;101630.91;;;27.56;50.15
75886;BME280;64561;44.018;10.144;2023-09-07T12:50:56;101633.56;;;27.55;53.93